Time;durP1;ratioP1;P1;durP2;ratioP2;P2;SDS_P1;SDS_P2;PMS_P1;PMS_P2;Temp;Humidity;BMP_temperature;BMP_pressure;BME280_temperature;BME280_humidity;BME280_pressure;Samples;Min_cycle;Max_cycle;Signal;HPM_P1;HPM_P2
2024/03/31 00:01:15;;;;;;;8.10;1.00;;;;;;;12.02;100.00;100072.98;105670;1261;61271;-57
2024/03/31 00:03:44;;;;;;;6.40;0.70;;;;;;;11.99;100.00;100073.08;105778;1262;73422;-56
2024/03/31 00:06:11;;;;;;;1.30;0.70;;;;;;;11.98;100.00;100076.91;105833;1272;66946;-57
2024/03/31 00:08:38;;;;;;;3.10;0.80;;;;;;;11.97;100.00;100078.61;105666;1258;72741;-56
2024/03/31 00:11:11;;;;;;;2.60;0.70;;;;;;;11.96;100.00;100073.80;105696;1266;61363;-56
2024/03/31 00:13:38;;;;;;;7.70;0.90;;;;;;;11.95;100.00;100077.98;105668;1264;61315;-56
2024/03/31 00:16:06;;;;;;;3.30;0.90;;;;;;;11.94;100.00;100081.23;105632;1264;74187;-55
2024/03/31 00:18:33;;;;;;;4.10;0.90;;;;;;;11.93;100.00;100079.31;105685;1273;66712;-55
2024/03/31 00:21:01;;;;;;;4.70;1.00;;;;;;;11.92;100.00;100078.64;105703;1273;73036;-55
2024/03/31 00:23:28;;;;;;;4.80;0.70;;;;;;;11.90;100.00;100080.20;105846;1258;61385;-56
2024/03/31 00:25:59;;;;;;;2.90;1.00;;;;;;;11.87;100.00;100081.95;105737;1263;61355;-56
2024/03/31 00:28:26;;;;;;;3.20;0.70;;;;;;;11.86;100.00;100086.16;105701;1258;74681;-55
2024/03/31 00:30:55;;;;;;;2.00;0.80;;;;;;;11.84;100.00;100084.08;105682;1260;67030;-56
2024/03/31 00:33:25;;;;;;;5.50;0.80;;;;;;;11.83;100.00;100082.50;105733;1264;72400;-56
2024/03/31 00:35:54;;;;;;;2.00;0.70;;;;;;;11.83;100.00;100084.32;105631;1263;61729;-56
2024/03/31 00:38:21;;;;;;;6.00;0.90;;;;;;;11.83;100.00;100080.52;105652;1262;61328;-56
2024/03/31 00:40:48;;;;;;;2.60;0.80;;;;;;;11.83;100.00;100076.95;105689;1260;75042;-56
2024/03/31 00:43:15;;;;;;;2.20;0.70;;;;;;;11.83;100.00;100076.96;105644;1262;66307;-55
2024/03/31 00:45:43;;;;;;;2.80;0.80;;;;;;;11.83;100.00;100074.79;105635;1264;73223;-55
2024/03/31 00:48:10;;;;;;;2.70;0.70;;;;;;;11.83;100.00;100070.13;105515;1262;61333;-56
2024/03/31 00:50:37;;;;;;;4.20;0.90;;;;;;;11.81;100.00;100069.67;105646;1262;61278;-56
2024/03/31 00:53:04;;;;;;;3.30;0.90;;;;;;;11.79;100.00;100070.34;105656;1263;75618;-56
2024/03/31 00:55:32;;;;;;;3.90;0.80;;;;;;;11.76;100.00;100070.62;105532;1260;67059;-56
2024/03/31 00:57:59;;;;;;;1.40;0.60;;;;;;;11.74;100.00;100068.02;105631;1263;73196;-56
2024/03/31 01:00:26;;;;;;;3.90;0.90;;;;;;;11.71;100.00;100067.79;105678;1263;61260;-57
2024/03/31 01:02:54;;;;;;;4.40;1.20;;;;;;;11.70;100.00;100075.55;105792;1263;61219;-57
2024/03/31 01:05:21;;;;;;;2.40;0.80;;;;;;;11.69;100.00;100071.66;105678;1262;75133;-56
2024/03/31 01:07:48;;;;;;;3.10;0.90;;;;;;;11.68;100.00;100070.96;105750;1264;66975;-55
2024/03/31 01:10:15;;;;;;;2.40;0.70;;;;;;;11.67;100.00;100065.41;105750;1260;72795;-56
2024/03/31 01:12:43;;;;;;;2.70;0.70;;;;;;;11.67;100.00;100064.52;105586;1264;61279;-54
2024/03/31 01:15:15;;;;;;;3.80;0.80;;;;;;;11.67;100.00;100066.90;106575;1263;61189;-55
2024/03/31 01:17:42;;;;;;;5.30;1.30;;;;;;;11.65;100.00;100067.91;105702;1273;74270;-54
2024/03/31 01:20:10;;;;;;;4.00;0.90;;;;;;;11.63;100.00;100070.89;105600;1262;67004;-53
2024/03/31 01:22:37;;;;;;;3.40;0.70;;;;;;;11.60;100.00;100072.46;105719;1262;72677;-55
2024/03/31 01:25:05;;;;;;;3.80;0.80;;;;;;;11.56;100.00;100075.86;105575;1262;61861;-54
2024/03/31 01:27:32;;;;;;;7.20;0.80;;;;;;;11.53;100.00;100076.72;105670;1263;61228;-55
2024/03/31 01:29:59;;;;;;;1.20;0.80;;;;;;;11.51;100.00;100074.15;105777;1260;73754;-54
2024/03/31 01:32:26;;;;;;;2.90;0.90;;;;;;;11.49;100.00;100081.41;105750;1257;66947;-54
2024/03/31 01:34:54;;;;;;;2.50;1.40;;;;;;;11.47;100.00;100081.69;105721;1258;72831;-59
2024/03/31 01:37:21;;;;;;;2.90;0.80;;;;;;;11.47;100.00;100078.47;105776;1260;61327;-53
2024/03/31 01:39:48;;;;;;;4.30;1.00;;;;;;;11.47;100.00;100081.71;106217;1258;62094;-54
2024/03/31 01:42:16;;;;;;;5.10;0.90;;;;;;;11.46;100.00;100078.70;105799;1261;74736;-54
2024/03/31 01:44:43;;;;;;;2.90;1.10;;;;;;;11.45;100.00;100081.44;105771;1263;68065;-54
2024/03/31 01:47:11;;;;;;;3.10;0.80;;;;;;;11.44;100.00;100082.38;105838;1260;72448;-55
2024/03/31 01:49:38;;;;;;;2.30;0.90;;;;;;;11.43;100.00;100080.27;105721;1263;61287;-55
2024/03/31 01:52:05;;;;;;;1.90;0.80;;;;;;;11.42;100.00;100081.58;105739;1266;61235;-54
2024/03/31 01:54:34;;;;;;;1.70;0.70;;;;;;;11.40;100.00;100078.77;105709;1263;73398;-55
2024/03/31 01:57:02;;;;;;;2.90;0.70;;;;;;;11.39;100.00;100078.66;105847;1260;65956;-55
2024/03/31 01:59:29;;;;;;;6.70;0.70;;;;;;;11.39;100.00;100076.52;105668;1262;71452;-55
2024/03/31 02:01:56;;;;;;;2.50;0.80;;;;;;;11.39;100.00;100081.89;105623;1259;61216;-55
2024/03/31 02:04:23;;;;;;;4.80;0.90;;;;;;;11.40;100.00;100084.55;105729;1262;61298;-55
2024/03/31 02:06:50;;;;;;;8.20;0.90;;;;;;;11.39;100.00;100084.21;105730;1257;73416;-56
2024/03/31 02:09:17;;;;;;;2.60;0.90;;;;;;;11.39;100.00;100090.34;105769;1260;67658;-55
2024/03/31 02:11:45;;;;;;;6.40;1.20;;;;;;;11.38;100.00;100097.55;105859;1256;72147;-55
2024/03/31 02:14:12;;;;;;;5.10;0.80;;;;;;;11.37;100.00;100099.23;108686;1260;62317;-55
2024/03/31 02:16:39;;;;;;;3.70;0.80;;;;;;;11.36;100.00;100099.27;108764;1257;60158;-56
2024/03/31 02:19:07;;;;;;;6.80;2.00;;;;;;;11.35;100.00;100094.45;108914;1256;72970;-55
2024/03/31 02:21:34;;;;;;;6.90;1.20;;;;;;;11.35;100.00;100092.64;108798;1257;66883;-55
2024/03/31 02:24:01;;;;;;;2.80;1.00;;;;;;;11.36;100.00;100084.90;108764;1260;72735;-55
2024/03/31 02:26:29;;;;;;;7.60;1.40;;;;;;;11.37;100.00;100091.13;108822;1257;61735;-55
2024/03/31 02:28:56;;;;;;;7.00;1.20;;;;;;;11.38;100.00;100086.97;108771;1256;60529;-55
2024/03/31 02:31:23;;;;;;;2.10;1.10;;;;;;;11.38;100.00;100088.55;108858;1256;75163;-55
2024/03/31 02:33:50;;;;;;;2.10;1.30;;;;;;;11.39;100.00;100087.47;108686;1259;66118;-54
2024/03/31 02:36:17;;;;;;;5.60;1.90;;;;;;;11.39;100.00;100090.89;108803;1257;72202;-55
2024/03/31 02:38:45;;;;;;;4.40;1.20;;;;;;;11.37;100.00;100084.65;108832;1256;60528;-55
2024/03/31 02:41:12;;;;;;;3.40;1.30;;;;;;;11.36;100.00;100086.50;108774;1256;60172;-57
2024/03/31 02:43:40;;;;;;;5.10;1.10;;;;;;;11.34;100.00;100090.00;108770;1256;74669;-56
2024/03/31 02:46:07;;;;;;;3.40;1.20;;;;;;;11.33;100.00;100091.49;107671;1259;65815;-55
2024/03/31 02:48:35;;;;;;;6.40;1.00;;;;;;;11.31;100.00;100091.73;106857;1258;71975;-56
2024/03/31 02:51:05;;;;;;;5.10;1.20;;;;;;;11.30;100.00;100089.12;106495;1260;61183;-55
2024/03/31 02:53:32;;;;;;;4.10;0.80;;;;;;;11.31;100.00;100088.38;105772;1256;59931;-58
2024/03/31 02:55:59;;;;;;;4.30;0.90;;;;;;;11.30;100.00;100086.96;105734;1262;74748;-56
2024/03/31 02:58:27;;;;;;;2.50;1.10;;;;;;;11.30;100.00;100088.74;105631;1256;65619;-56
2024/03/31 03:01:04;;;;;;;4.50;1.50;;;;;;;11.30;100.00;100087.88;105659;1259;71986;-55
2024/03/31 03:03:32;;;;;;;6.10;1.00;;;;;;;11.29;100.00;100085.93;105687;1263;62012;-55
2024/03/31 03:05:59;;;;;;;4.20;1.00;;;;;;;11.28;100.00;100089.38;105745;1260;60416;-55
2024/03/31 03:08:26;;;;;;;4.50;0.80;;;;;;;11.27;100.00;100090.68;105788;1257;74582;-58
2024/03/31 03:10:57;;;;;;;5.80;1.10;;;;;;;11.26;100.00;100090.55;105581;1263;66138;-55
2024/03/31 03:13:24;;;;;;;4.50;1.00;;;;;;;11.25;100.00;100092.74;105999;1262;71491;-58
2024/03/31 03:15:53;;;;;;;3.60;0.90;;;;;;;11.26;100.00;100088.05;105717;1257;62110;-56
2024/03/31 03:18:20;;;;;;;7.30;1.20;;;;;;;11.26;100.00;100091.10;105565;1259;61391;-56
2024/03/31 03:20:50;;;;;;;5.00;0.80;;;;;;;11.26;100.00;100092.15;106242;1262;73550;-56
2024/03/31 03:23:17;;;;;;;5.60;0.80;;;;;;;11.26;100.00;100093.96;105496;1264;65536;-56
2024/03/31 03:25:53;;;;;;;4.20;1.40;;;;;;;11.23;100.00;100091.74;105638;1263;71035;-54
2024/03/31 03:28:20;;;;;;;3.00;1.00;;;;;;;11.22;100.00;100089.13;105638;1261;61446;-55
2024/03/31 03:30:48;;;;;;;6.70;1.20;;;;;;;11.21;100.00;100095.66;105736;1256;61311;-54
2024/03/31 03:33:17;;;;;;;5.80;1.10;;;;;;;11.19;100.00;100096.27;105551;1263;72794;-53
2024/03/31 03:35:45;;;;;;;5.60;1.60;;;;;;;11.16;100.00;100098.38;105758;1273;65984;-55
2024/03/31 03:38:13;;;;;;;9.10;1.30;;;;;;;11.13;100.00;100103.39;106562;1257;71467;-55
2024/03/31 03:40:41;;;;;;;7.70;1.50;;;;;;;11.10;100.00;100104.77;105595;1264;61344;-55
2024/03/31 03:43:09;;;;;;;5.50;1.20;;;;;;;11.07;100.00;100102.58;105820;1260;61420;-54
2024/03/31 03:45:40;;;;;;;6.20;1.10;;;;;;;11.05;100.00;100105.73;105643;1257;74986;-54
2024/03/31 03:48:07;;;;;;;5.10;1.30;;;;;;;11.04;100.00;100104.70;105507;1257;67329;-57
2024/03/31 03:50:36;;;;;;;6.00;1.30;;;;;;;11.04;100.00;100101.30;105665;1262;72649;-55
2024/03/31 03:53:05;;;;;;;4.70;0.90;;;;;;;11.03;100.00;100103.46;105851;1262;62219;-54
2024/03/31 03:55:32;;;;;;;7.90;1.60;;;;;;;11.02;100.00;100104.21;105706;1260;62068;-54
2024/03/31 03:57:59;;;;;;;5.90;1.50;;;;;;;11.01;100.00;100106.44;105748;1260;74703;-55
2024/03/31 04:00:26;;;;;;;5.00;1.10;;;;;;;10.99;100.00;100106.32;105814;1272;66579;-55
2024/03/31 04:02:54;;;;;;;5.30;1.40;;;;;;;10.99;100.00;100106.70;106019;1260;71183;-54
2024/03/31 04:05:21;;;;;;;5.40;1.40;;;;;;;10.97;100.00;100103.52;105760;1260;61392;-56
2024/03/31 04:07:48;;;;;;;11.20;0.90;;;;;;;10.97;100.00;100103.02;105816;1254;61043;-55
2024/03/31 04:10:16;;;;;;;5.00;1.10;;;;;;;10.96;100.00;100106.30;108031;1256;73485;-54
2024/03/31 04:12:44;;;;;;;6.70;1.10;;;;;;;10.95;100.00;100107.05;105861;1256;69790;-56
2024/03/31 04:15:11;;;;;;;4.10;1.00;;;;;;;10.94;100.00;100105.66;105834;1257;72660;-56
2024/03/31 04:17:39;;;;;;;5.90;1.80;;;;;;;10.94;100.00;100104.95;106016;1254;61359;-54
2024/03/31 04:20:06;;;;;;;6.80;1.30;;;;;;;10.94;100.00;100106.02;105804;1259;61435;-54
2024/03/31 04:22:34;;;;;;;6.40;1.30;;;;;;;10.94;100.00;100105.30;105934;1269;74276;-54
2024/03/31 04:25:02;;;;;;;7.20;1.00;;;;;;;10.94;100.00;100105.66;105867;1261;66777;-55
2024/03/31 04:27:29;;;;;;;9.70;1.30;;;;;;;10.95;100.00;100105.81;105743;1261;72806;-53
2024/03/31 04:29:57;;;;;;;6.80;1.30;;;;;;;10.96;100.00;100104.87;105847;1270;61774;-54
2024/03/31 04:32:25;;;;;;;5.40;1.10;;;;;;;10.98;100.00;100105.82;106235;1259;61183;-55
2024/03/31 04:34:52;;;;;;;5.60;1.50;;;;;;;11.01;100.00;100103.75;106838;1260;73434;-54
2024/03/31 04:37:20;;;;;;;7.70;2.00;;;;;;;11.03;100.00;100104.55;105870;1257;65724;-53
2024/03/31 04:39:50;;;;;;;7.20;0.90;;;;;;;11.06;100.00;100108.92;106039;1259;71443;-53
2024/03/31 04:42:18;;;;;;;6.80;1.10;;;;;;;11.11;100.00;100109.96;105894;1259;61288;-55
2024/03/31 04:44:46;;;;;;;11.30;1.30;;;;;;;11.15;100.00;100117.83;105936;1258;62270;-54
2024/03/31 04:47:13;;;;;;;6.30;1.50;;;;;;;11.20;100.00;100119.96;105856;1254;75034;-54
2024/03/31 04:49:41;;;;;;;8.10;1.40;;;;;;;11.23;100.00;100121.23;109000;1254;66183;-54
2024/03/31 04:52:09;;;;;;;4.20;1.10;;;;;;;11.27;100.00;100125.89;109038;1254;71933;-55
2024/03/31 04:54:38;;;;;;;5.60;1.20;;;;;;;11.31;100.00;100126.27;108924;1254;60544;-55
2024/03/31 04:57:05;;;;;;;11.10;1.10;;;;;;;11.35;100.00;100122.85;108938;1254;60132;-55
2024/03/31 04:59:34;;;;;;;8.20;1.40;;;;;;;11.39;100.00;100126.45;108932;1253;75147;-55
2024/03/31 05:02:02;;;;;;;7.00;1.20;;;;;;;11.44;100.00;100126.58;109118;1253;66347;-54
2024/03/31 05:04:30;;;;;;;7.80;1.20;;;;;;;11.50;100.00;100128.80;109100;1253;72704;-56
2024/03/31 05:06:57;;;;;;;8.50;1.00;;;;;;;11.56;100.00;100126.91;109007;1254;61781;-54
2024/03/31 05:09:25;;;;;;;8.20;1.20;;;;;;;11.63;100.00;100126.05;109022;1254;60217;-54
2024/03/31 05:11:52;;;;;;;8.40;1.50;;;;;;;11.69;100.00;100128.08;108858;1254;74629;-53
2024/03/31 05:14:19;;;;;;;9.80;1.90;;;;;;;11.76;100.00;100124.73;108868;1254;65694;-54
2024/03/31 05:16:46;;;;;;;4.10;1.50;;;;;;;11.82;100.00;100123.91;108874;1254;71253;-54
2024/03/31 05:19:13;;;;;;;6.60;1.80;;;;;;;11.88;100.00;100120.20;109026;1254;62114;-55
2024/03/31 05:21:41;;;;;;;8.00;1.30;;;;;;;11.95;100.00;100117.55;108956;1254;58969;-57
2024/03/31 05:26:42;;;;;;;7.90;1.50;;;;;;;12.10;100.00;100131.58;102844;1295;600279;-56
2024/03/31 05:29:09;;;;;;;13.50;1.30;;;;;;;12.16;100.00;100140.06;105139;1277;60298;-55
2024/03/31 05:31:38;;;;;;;10.40;2.10;;;;;;;12.24;100.00;100137.52;108234;1266;58970;-55
2024/03/31 05:34:08;;;;;;;10.10;1.90;;;;;;;12.31;100.00;100138.98;108209;1267;73597;-55
2024/03/31 05:36:41;;;;;;;7.10;1.30;;;;;;;12.39;100.00;100133.19;108108;1267;65991;-55
2024/03/31 05:39:09;;;;;;;7.50;1.20;;;;;;;12.48;100.00;100132.36;108256;1267;73176;-55
2024/03/31 05:41:36;;;;;;;8.00;1.30;;;;;;;12.57;100.00;100133.90;108394;1262;61878;-54
2024/03/31 05:44:03;;;;;;;6.50;1.80;;;;;;;12.67;100.00;100144.38;105782;1272;60191;-54
2024/03/31 05:46:31;;;;;;;8.70;1.50;;;;;;;12.77;100.00;100148.54;105583;1264;72459;-55
2024/03/31 05:48:58;;;;;;;10.50;1.50;;;;;;;12.86;100.00;100151.68;105181;1264;65327;-54
2024/03/31 05:51:30;;;;;;;10.00;1.50;;;;;;;12.96;100.00;100149.02;105904;1256;71454;-55
2024/03/31 05:53:59;;;;;;;8.10;2.10;;;;;;;13.05;100.00;100151.05;105873;1263;60544;-55
2024/03/31 05:56:27;;;;;;;7.50;1.70;;;;;;;13.12;100.00;100156.61;105746;1257;60651;-55
2024/03/31 05:58:54;;;;;;;8.00;1.20;;;;;;;13.20;100.00;100160.39;105643;1273;73313;-54
2024/03/31 06:01:21;;;;;;;6.20;1.90;;;;;;;13.28;100.00;100160.89;105954;1260;65422;-55
2024/03/31 06:03:50;;;;;;;5.30;1.10;;;;;;;13.36;100.00;100161.88;105732;1263;74746;-57
2024/03/31 06:06:18;;;;;;;6.90;1.40;;;;;;;13.44;100.00;100160.01;105697;1263;61804;-56
2024/03/31 06:08:45;;;;;;;10.10;1.50;;;;;;;13.52;100.00;100157.42;105528;1265;60427;-57
2024/03/31 06:11:12;;;;;;;9.50;1.80;;;;;;;13.60;100.00;100156.27;105551;1264;74446;-55
2024/03/31 06:13:40;;;;;;;7.60;1.10;;;;;;;13.70;100.00;100153.38;105823;1257;67289;-55
2024/03/31 06:16:07;;;;;;;6.70;1.60;;;;;;;13.80;100.00;100156.23;105643;1263;72768;-55
2024/03/31 06:18:34;;;;;;;6.40;1.50;;;;;;;13.89;100.00;100154.84;105569;1264;60470;-56
2024/03/31 06:21:06;;;;;;;14.00;2.10;;;;;;;13.98;100.00;100154.49;105499;1264;60569;-55
2024/03/31 06:23:35;;;;;;;7.60;1.80;;;;;;;14.08;100.00;100153.77;105854;1265;74187;-55
2024/03/31 06:26:02;;;;;;;10.00;1.70;;;;;;;14.18;100.00;100153.57;105733;1266;64964;-54
2024/03/31 06:28:30;;;;;;;3.90;1.30;;;;;;;14.27;100.00;100155.52;108184;1260;72080;-57
2024/03/31 06:30:57;;;;;;;7.90;1.70;;;;;;;14.38;100.00;100154.39;105491;1264;61225;-55
2024/03/31 06:33:25;;;;;;;8.80;1.50;;;;;;;14.49;100.00;100154.87;105615;1263;60676;-55
2024/03/31 06:35:53;;;;;;;12.20;2.00;;;;;;;14.60;100.00;100147.73;105939;1262;71816;-54
2024/03/31 06:38:21;;;;;;;9.00;1.80;;;;;;;14.69;100.00;100149.86;105614;1260;66963;-54
2024/03/31 06:40:48;;;;;;;7.80;1.20;;;;;;;14.79;100.00;100155.45;105599;1264;71431;-54
2024/03/31 06:43:16;;;;;;;9.60;2.00;;;;;;;14.88;100.00;100156.38;105690;1260;59317;-54
2024/03/31 06:45:44;;;;;;;9.10;1.50;;;;;;;14.95;100.00;100158.29;105808;1262;61320;-54
2024/03/31 06:48:11;;;;;;;9.70;2.00;;;;;;;15.02;100.00;100158.04;105579;1270;73373;-55
2024/03/31 06:50:39;;;;;;;10.90;2.20;;;;;;;15.09;100.00;100154.70;105874;1265;65700;-56
2024/03/31 06:53:06;;;;;;;14.40;1.70;;;;;;;15.17;100.00;100158.40;106059;1254;70798;-54
2024/03/31 06:55:33;;;;;;;13.00;1.40;;;;;;;15.25;100.00;100158.27;105893;1267;61654;-54
2024/03/31 06:58:01;;;;;;;6.30;1.30;;;;;;;15.35;100.00;100158.39;106176;1257;60546;-56
2024/03/31 07:00:28;;;;;;;8.40;1.60;;;;;;;15.45;100.00;100160.80;105894;1260;74807;-56
2024/03/31 07:02:57;;;;;;;5.40;1.30;;;;;;;15.57;100.00;100162.48;105930;1254;66308;-55
2024/03/31 07:05:26;;;;;;;9.60;1.60;;;;;;;15.69;100.00;100163.36;106419;1256;71580;-55
2024/03/31 07:07:53;;;;;;;8.80;1.40;;;;;;;15.80;100.00;100162.99;105945;1275;60543;-54
2024/03/31 07:10:20;;;;;;;11.30;1.80;;;;;;;15.91;100.00;100159.77;108121;1256;59845;-53
2024/03/31 07:12:47;;;;;;;11.60;1.80;;;;;;;16.03;100.00;100157.73;106123;1260;71782;-56
2024/03/31 07:15:15;;;;;;;9.30;1.40;;;;;;;16.13;100.00;100162.65;105961;1260;68009;-55
2024/03/31 07:17:42;;;;;;;5.30;1.80;;;;;;;16.24;100.00;100170.85;106027;1256;71395;-55
2024/03/31 07:20:10;;;;;;;7.10;1.30;;;;;;;16.34;100.00;100169.64;105861;1257;60566;-55
2024/03/31 07:22:37;;;;;;;10.90;1.60;;;;;;;16.44;100.00;100170.77;106042;1257;61302;-54
2024/03/31 07:25:04;;;;;;;15.50;1.10;;;;;;;16.55;100.00;100176.20;106257;1259;72664;-54
2024/03/31 07:27:32;;;;;;;8.80;1.20;;;;;;;16.65;100.00;100179.73;106000;1260;65231;-54
2024/03/31 07:29:59;;;;;;;12.90;1.70;;;;;;;16.75;100.00;100177.83;105971;1259;71465;-56
2024/03/31 07:32:26;;;;;;;14.00;1.70;;;;;;;16.83;100.00;100178.88;105823;1260;60452;-53
2024/03/31 07:34:54;;;;;;;8.40;1.40;;;;;;;16.91;100.00;100183.58;105803;1262;60873;-53
2024/03/31 07:37:21;;;;;;;6.70;1.50;;;;;;;16.99;100.00;100186.11;106039;1255;74243;-54
2024/03/31 07:39:48;;;;;;;7.80;1.30;;;;;;;17.07;100.00;100187.97;106289;1259;65840;-55
2024/03/31 07:42:16;;;;;;;13.20;1.30;;;;;;;17.15;100.00;100191.61;106240;1259;71389;-54
2024/03/31 07:44:43;;;;;;;12.80;1.80;;;;;;;17.23;100.00;100189.75;106142;1257;61431;-56
2024/03/31 07:47:10;;;;;;;12.60;1.40;;;;;;;17.32;100.00;100191.88;106001;1256;60713;-56
2024/03/31 07:49:37;;;;;;;7.00;1.00;;;;;;;17.41;100.00;100195.40;106043;1262;72972;-56
2024/03/31 07:52:05;;;;;;;9.80;2.00;;;;;;;17.50;100.00;100194.05;106051;1262;67944;-56
2024/03/31 07:54:32;;;;;;;8.10;1.20;;;;;;;17.60;100.00;100197.14;106108;1259;72781;-55
2024/03/31 07:56:59;;;;;;;8.50;1.50;;;;;;;17.70;100.00;100199.36;105948;1258;60351;-56
2024/03/31 07:59:26;;;;;;;6.50;1.40;;;;;;;17.80;100.00;100198.08;105920;1257;60341;-54
2024/03/31 08:01:54;;;;;;;5.50;1.00;;;;;;;17.91;100.00;100198.08;105861;1259;73890;-53
2024/03/31 08:04:21;;;;;;;3.90;1.00;;;;;;;18.01;100.00;100197.80;108880;1257;66157;-53
2024/03/31 08:06:49;;;;;;;10.00;0.90;;;;;;;18.12;100.00;100197.63;108937;1254;72729;-54
2024/03/31 08:09:17;;;;;;;13.80;1.30;;;;;;;18.20;100.00;100195.23;108911;1256;58870;-52
2024/03/31 08:11:44;;;;;;;6.20;0.90;;;;;;;18.28;100.00;100198.65;108983;1257;58755;-55
2024/03/31 08:14:11;;;;;;;15.50;1.00;;;;;;;18.35;100.00;100192.09;108935;1254;73998;-52
2024/03/31 08:16:39;;;;;;;11.50;1.00;;;;;;;18.42;100.00;100192.67;109073;1256;65801;-55
2024/03/31 08:19:06;;;;;;;8.20;0.90;;;;;;;18.50;100.00;100193.50;108852;1256;72751;-53
2024/03/31 08:21:33;;;;;;;10.30;0.90;;;;;;;18.59;100.00;100194.31;109095;1254;61186;-54
2024/03/31 08:24:00;;;;;;;4.60;1.10;;;;;;;18.69;100.00;100193.42;108866;1256;60142;-53
2024/03/31 08:26:28;;;;;;;11.80;1.30;;;;;;;18.78;100.00;100192.16;109058;1254;73279;-55
2024/03/31 08:28:55;;;;;;;8.10;0.90;;;;;;;18.87;100.00;100193.63;109024;1259;67160;-53
2024/03/31 08:31:22;;;;;;;8.00;1.30;;;;;;;18.97;100.00;100195.17;108890;1259;72772;-53
2024/03/31 08:33:49;;;;;;;6.90;1.30;;;;;;;19.06;100.00;100195.18;109091;1256;60023;-53
2024/03/31 08:36:17;;;;;;;8.60;1.60;;;;;;;19.15;100.00;100197.38;108917;1255;62266;-56
2024/03/31 08:38:44;;;;;;;16.70;3.00;;;;;;;19.25;100.00;100200.58;106701;1257;73898;-54
2024/03/31 08:41:16;;;;;;;8.10;1.70;;;;;;;19.36;100.00;100202.28;105863;1257;66174;-56
2024/03/31 08:43:43;;;;;;;11.30;2.50;;;;;;;19.46;100.00;100200.55;107290;1261;71382;-52
2024/03/31 08:46:11;;;;;;;11.10;2.20;;;;;;;19.56;100.00;100197.82;106004;1260;60487;-53
2024/03/31 08:48:38;;;;;;;12.30;2.90;;;;;;;19.66;100.00;100199.62;105854;1270;60459;-55
2024/03/31 08:51:06;;;;;;;9.70;3.00;;;;;;;19.75;100.00;100198.88;105937;1257;72705;-53
2024/03/31 08:53:33;;;;;;;14.40;3.40;;;;;;;19.84;100.00;100203.59;105906;1269;67101;-53
2024/03/31 08:56:00;;;;;;;6.60;2.10;;;;;;;19.93;100.00;100203.84;105857;1270;72776;-53
2024/03/31 08:58:28;;;;;;;12.90;2.60;;;;;;;19.98;100.00;100201.91;106288;1261;60555;-53
2024/03/31 09:00:55;;;;;;;13.40;2.40;;;;;;;20.05;100.00;100203.39;105900;1260;61422;-55
2024/03/31 09:03:24;;;;;;;8.00;1.40;;;;;;;20.11;100.00;100205.44;105796;1265;71668;-55
2024/03/31 09:05:51;;;;;;;12.70;1.20;;;;;;;20.18;100.00;100209.25;105916;1260;67269;-54
2024/03/31 09:08:18;;;;;;;12.30;1.10;;;;;;;20.26;100.00;100210.22;105895;1259;74991;-55
2024/03/31 09:11:07;;;;;;;4.40;1.00;;;;;;;20.33;100.00;100211.48;105752;1262;60470;-54
2024/03/31 09:13:35;;;;;;;6.10;0.80;;;;;;;20.39;100.00;100207.36;106059;1257;60303;-55
2024/03/31 09:16:02;;;;;;;7.00;1.10;;;;;;;20.46;100.00;100207.88;106287;1260;75980;-54
2024/03/31 09:18:29;;;;;;;10.70;1.10;;;;;;;20.52;100.00;100208.46;105935;1269;65697;-53
2024/03/31 09:20:57;;;;;;;6.20;1.10;;;;;;;20.58;100.00;100211.45;105873;1262;73215;-54
2024/03/31 09:23:24;;;;;;;4.30;1.20;;;;;;;20.63;100.00;100213.95;105994;1260;60556;-53
2024/03/31 09:25:51;;;;;;;9.20;1.80;;;;;;;20.67;100.00;100210.00;106061;1273;61400;-54
2024/03/31 09:28:19;;;;;;;6.80;1.00;;;;;;;20.70;100.00;100210.08;105995;1259;73008;-55
2024/03/31 09:30:50;;;;;;;5.00;0.70;;;;;;;20.74;100.00;100211.06;106012;1257;69184;-55
2024/03/31 09:33:17;;;;;;;10.40;1.20;;;;;;;20.77;100.00;100211.52;106014;1270;70907;-55
2024/03/31 09:35:45;;;;;;;10.00;1.30;;;;;;;20.79;100.00;100212.98;105980;1260;61188;-54
2024/03/31 09:38:13;;;;;;;7.20;1.30;;;;;;;20.81;100.00;100212.11;106137;1254;61417;-54
2024/03/31 09:40:40;;;;;;;7.60;0.70;;;;;;;20.83;100.00;100210.12;106143;1261;74738;-54
2024/03/31 09:43:08;;;;;;;6.20;1.30;;;;;;;20.86;100.00;100214.05;105911;1260;66911;-51
2024/03/31 09:45:35;;;;;;;8.90;0.80;;;;;;;20.90;100.00;100214.26;105841;1270;71954;-54
2024/03/31 09:48:06;;;;;;;4.30;0.90;;;;;;;20.95;100.00;100214.35;105891;1270;60266;-53
2024/03/31 09:50:53;;;;;;;3.10;0.70;;;;;;;21.01;100.00;100212.77;105980;1260;61262;-52
2024/03/31 09:53:23;;;;;;;7.20;0.70;;;;;;;21.06;100.00;100209.20;105965;1255;73480;-55
2024/03/31 09:55:50;;;;;;;7.90;1.10;;;;;;;21.11;100.00;100207.71;106006;1260;65819;-54
2024/03/31 09:58:17;;;;;;;6.10;0.80;;;;;;;21.17;100.00;100207.98;105960;1260;72751;-56
2024/03/31 10:00:45;;;;;;;5.40;0.60;;;;;;;21.23;100.00;100207.28;105961;1260;61366;-54
2024/03/31 10:03:31;;;;;;;7.00;0.80;;;;;;;21.30;100.00;100210.52;106151;1260;61279;-55
2024/03/31 10:05:58;;;;;;;5.30;0.70;;;;;;;21.36;100.00;100212.31;106014;1260;73947;-54
2024/03/31 10:08:29;;;;;;;5.40;0.80;;;;;;;21.42;100.00;100207.65;105976;1267;66987;-55
2024/03/31 10:10:57;;;;;;;7.50;0.80;;;;;;;21.45;100.00;100206.98;105998;1260;75265;-56
2024/03/31 10:13:25;;;;;;;4.70;0.90;;;;;;;21.50;100.00;100202.55;106032;1270;61282;-55
2024/03/31 10:15:57;;;;;;;6.30;0.90;;;;;;;21.55;100.00;100206.70;106017;1260;62088;-53
2024/03/31 10:18:24;;;;;;;4.10;0.70;;;;;;;21.60;100.00;100200.64;105918;1257;74791;-54
2024/03/31 10:20:52;;;;;;;8.10;1.50;;;;;;;21.63;100.00;100195.23;105898;1263;67103;-53
2024/03/31 10:23:19;;;;;;;8.20;0.80;;;;;;;21.66;100.00;100198.05;105920;1261;72040;-53
2024/03/31 10:25:46;;;;;;;5.40;0.60;;;;;;;21.69;100.00;100199.27;105916;1269;61317;-53
2024/03/31 10:28:14;;;;;;;6.90;1.10;;;;;;;21.73;100.00;100200.92;105855;1260;61260;-55
2024/03/31 10:30:41;;;;;;;10.20;2.00;;;;;;;21.76;100.00;100201.02;106026;1259;75136;-54
2024/03/31 10:33:09;;;;;;;7.00;1.00;;;;;;;21.80;100.00;100197.21;105787;1263;67426;-55
2024/03/31 10:35:37;;;;;;;5.40;1.00;;;;;;;21.84;100.00;100194.63;105746;1254;72651;-55
2024/03/31 10:38:05;;;;;;;6.80;1.00;;;;;;;21.89;100.00;100192.91;105807;1259;61282;-53
2024/03/31 10:40:37;;;;;;;10.20;1.60;;;;;;;21.94;100.00;100191.02;107607;1254;61312;-54
2024/03/31 10:43:05;;;;;;;4.90;0.50;;;;;;;21.98;100.00;100190.86;105808;1263;73952;-54
2024/03/31 10:45:33;;;;;;;7.50;1.20;;;;;;;22.02;100.00;100188.18;105915;1260;68449;-52
2024/03/31 10:48:00;;;;;;;3.60;0.70;;;;;;;22.05;100.00;100184.93;105805;1258;74171;-57
2024/03/31 10:50:28;;;;;;;5.50;1.10;;;;;;;22.08;100.00;100181.55;105913;1260;61249;-53
2024/03/31 10:52:56;;;;;;;4.00;0.70;;;;;;;22.12;100.00;100180.52;105838;1256;61234;-55
2024/03/31 10:55:23;;;;;;;7.10;0.80;;;;;;;22.16;100.00;100174.85;105904;1254;75098;-55
2024/03/31 10:57:57;;;;;;;6.00;0.80;;;;;;;22.21;100.00;100170.32;108943;1254;66296;-55
2024/03/31 11:00:25;;;;;;;6.60;0.70;;;;;;;22.27;100.00;100168.30;108846;1254;73089;-57
2024/03/31 11:02:53;;;;;;;5.40;0.70;;;;;;;22.32;100.00;100168.27;108981;1254;60206;-54
2024/03/31 11:05:20;;;;;;;3.20;0.80;;;;;;;22.35;100.00;100158.48;108933;1259;60446;-54
2024/03/31 11:07:50;;;;;;;5.10;0.60;;;;;;;22.39;100.00;100155.91;108991;1257;73578;-54
2024/03/31 11:10:19;;;;;;;6.00;0.70;;;;;;;22.43;100.00;100152.65;108932;1260;65882;-56
2024/03/31 11:12:47;;;;;;;5.10;0.90;;;;;;;22.47;100.00;100150.40;108870;1254;71475;-55